Tiempo atmosférico en la estación meteorológica de Sabiñanigo, Huesca (775 m.)



Fecha
DESCASC
Temp. máxima en grados centígrados (hora)
DESCASC
Temp. mínima en grados centígrados (hora)
DESCASC
Temp. media en grados centígrados
DESCASC
Racha de viento máxima en m/sg (hora)
DESCASC
Velocidad máxima media en intervalos de 10 minutos(hora)
DESCASC
Precipitaciones diarias en mm
DESCASC
Precipitaciones de 00:00 a 06:00 en mm
DESCASC
Precipitaciones de 06:00 a 12:00 en mm
DESCASC
Precipitaciones de 12:00 a 18:00 en mm
DESCASC
Precipitaciones de 18:00 a 24:00 en mm
DESCASC
11-08-2020 31.4 (14:30) 18.3 (03:40) 24.8 10.28 (17:30) 6.11 (17:30) 0 0 0 0 0
10-08-2020 35.2 (14:30) 17.1 (07:10) 26.2 12.22 (15:50) 5.83 (00:10) 0.4 0 0 0.4 0
09-08-2020 36.4 (17:40) 19.8 (07:20) 28.1 11.11 (19:30) 5 (19:40) 0 0 0 0 0
08-08-2020 37.9 (16:20) 18 (07:50) 28 6.94 (02:20) 3.61 (02:20) 0 0 0 0 0
07-08-2020 38.8 (16:30) 18.9 (00:00) 28.8 11.11 (22:30) 6.39 (23:30) 0 0 0 0 0
06-08-2020 36.2 (16:30) 12.4 (00:00) 24.3 2.78 (21:10) 1.94 (21:10) 0 0 0 0 0
05-08-2020 33.6 (18:20) 10.5 (00:00) 22 3.06 (12:00) 2.22 (20:30) 0 0 0 0 0
04-08-2020 29.6 (17:20) 9.7 (07:20) 19.7 8.06 (20:20) 4.17 (20:00) 0 0 0 0 0
03-08-2020 28.2 (15:20) 12.4 (08:10) 20.3 11.11 (20:00) 6.39 (19:50) 0 0 0 0 0
02-08-2020 28.5 (14:20) 13.2 (00:00) 20.8 9.44 (17:00) 5.56 (17:00) 0 0 0 0 0
01-08-2020 35.2 (13:50) 17.5 (00:00) 26.4 8.89 (19:50) 4.44 (22:20) 0 0 0 0 0
31-07-2020 37.4 (17:40) 17.8 (06:50) 27.6 6.67 (01:20) 3.33 (01:30) 0 0 0 0 0
30-07-2020 38.2 (17:00) 17.3 (00:00) 27.8 7.22 (23:00) 3.89 (21:50) 0 0 0 0 0
29-07-2020 35.2 (16:30) 16.3 (00:00) 25.8 4.44 (08:10) 2.5 (00:10) 2.2 0 2.2 0 0
28-07-2020 36.6 (17:20) 19.1 (00:00) 27.8 7.22 (02:10) 3.61 (02:10) 0.4 0.4 0 0 0
27-07-2020 38.8 (16:50) 16 (00:00) 27.4 13.06 (21:10) 5.28 (21:20) 3 0 0 0 3
26-07-2020 33.7 (17:30) 13.8 (00:00) 23.8 2.78 (10:50) 1.67 (20:00) 0 0 0 0 0
25-07-2020 33.1 (15:50) 10.9 (00:00) 22 3.89 (21:50) 1.94 (12:30) 0 0 0 0 0
24-07-2020 30.6 (17:10) 15.4 (00:00) 23 5.83 (22:20) 2.78 (20:30) 0.2 0.2 0 0 0
23-07-2020 32.8 (17:00) 13.9 (00:00) 23.3 6.39 (20:40) 3.06 (21:10) 0 0 0 0 0
22-07-2020 35.1 (17:00) 19.2 (00:00) 27.1 4.72 (00:20) 2.5 (00:20) 0 0 0 0 0
21-07-2020 36.3 (16:30) 15.9 (00:00) 26.1 3.61 (23:00) 1.94 (19:10) 0 0 0 0 0
20-07-2020 35.7 (16:20) 16.2 (00:00) 26 4.72 (18:20) 2.78 (20:50) 0 0 0 0 0
19-07-2020 34.5 (17:10) 13.2 (00:00) 23.8 3.06 (21:50) 1.67 (20:10) 0 0 0 0 0
18-07-2020 32.9 (17:50) 11.2 (00:00) 22.1 3.33 (03:40) 2.22 (20:20) 0 0 0 0 0
17-07-2020 28.9 (17:00) 9.7 (00:00) 19.3 9.44 (19:10) 4.17 (19:10) 0 0 0 0 0
16-07-2020 29.4 (16:10) 9.4 (00:00) 19.4 7.5 (20:10) 3.89 (20:10) 0 0 0 0 0
15-07-2020 25.1 (15:00) 10.9 (00:00) 18 8.89 (16:20) 4.72 (16:20) 0 0 0 0 0
14-07-2020 27.1 (18:30) 13.6 (00:00) 20.4 8.33 (20:20) 4.72 (20:30) 0 0 0 0 0

Gráficas

Temp. máximas Temp. mínimas Temp. medias Precipitaciones Rachas de viento máximas Velocidades máximas media en intervalos de 10 minutos

Datos horarios

Fecha y hora oficial Temperatura (ºC) Velocidad del viento (km/h) Dirección del viento Racha (km/h) Dirección de racha Precipitación (mm) Presión (hPa) Tendencia (hPa) Humedad (%)
2020-08-12 23:00:00 19.8 5 Oeste 13 Oeste 0 -- -- 63
2020-08-12 22:00:00 22.2 3 Norte 12 Sudoeste 0 -- -- 48
2020-08-12 21:00:00 24.5 8 Sudoeste 19 Sudeste 0 -- -- 35
2020-08-12 20:00:00 28.8 4 Sur 15 Sudeste 0 -- -- 26
2020-08-12 19:00:00 28.6 8 Sur 12 Sudoeste 0 -- -- 23
2020-08-12 18:00:00 30.4 6 Sur 19 Sudoeste 0 -- -- 19
2020-08-12 17:00:00 30.4 5 Sudoeste 10 Sur 0 -- -- 24
2020-08-12 16:00:00 30.2 5 Sudeste 11 Sudoeste 0 -- -- 28
2020-08-12 15:00:00 29 6 Sudoeste 10 Sur 0 -- -- 31
2020-08-12 14:00:00 27.9 6 Sudoeste 12 Sudeste 0 -- -- 38
2020-08-12 13:00:00 27.5 8 Sur 14 Sudeste 0 -- -- 40
2020-08-12 12:00:00 26.1 7 Sur 26 Este 0 -- -- 42
2020-08-12 11:00:00 25.4 14 Sudeste 33 Sudeste 0 -- -- 44
2020-08-12 10:00:00 23.2 14 Este 29 Este 0 -- -- 47
2020-08-12 09:00:00 21.4 6 Sur 13 Oeste 0 -- -- 55
2020-08-12 08:00:00 18.9 3 Oeste 14 Sudoeste 0 -- -- 73
2020-08-12 07:00:00 18.1 5 Sudoeste 10 Oeste 0 -- -- 76
2020-08-12 06:00:00 18.6 4 Sur 10 Sudoeste 0.2 -- -- 71
2020-08-12 05:00:00 19.8 4 Sur 8 Sur 0 -- -- 60
2020-08-12 04:00:00 21.2 4 Sudoeste 18 Sudeste 0 -- -- 53
2020-08-12 03:00:00 20.5 5 Este 8 Este 0 -- -- 59
2020-08-12 02:00:00 21.2 6 Este 10 Este 0 -- -- 54
2020-08-12 01:00:00 21.2 8 Norte 10 Norte 0 -- -- 58
2020-08-12 00:00:00 21.6 4 Sudeste 9 Noroeste 0 -- -- 56
2020-08-11 23:00:00 22.3 3 Noroeste 10 Noroeste 0 -- -- 52
2020-08-11 22:00:00 23 5 Sudoeste 10 Noroeste 0 -- -- 47
2020-08-11 21:00:00 24.2 5 Noroeste 17 Norte 0 -- -- 42
2020-08-11 20:00:00 24.5 6 Norte 17 Norte 0 -- -- 40
2020-08-11 19:00:00 25.1 13 Norte 25 Noroeste 0 -- -- 39
2020-08-11 18:00:00 24 18 Norte 37 Norte 0 -- -- 45
2020-08-11 17:00:00 25.7 6 Nordeste 15 Sudoeste 0 -- -- 39
2020-08-11 16:00:00 28.8 3 Sur 12 Sudeste 0 -- -- 27
2020-08-11 15:00:00 30.3 8 Sudeste 17 Este 0 -- -- 25
2020-08-11 14:00:00 31.2 5 Este 14 Nordeste 0 -- -- 25
2020-08-11 13:00:00 29.6 8 Nordeste 18 Nordeste 0 -- -- 27
2020-08-11 12:00:00 28.9 5 Noroeste 10 Norte 0 -- -- 31
2020-08-11 11:00:00 25.2 6 Norte 14 Norte 0 -- -- 40
2020-08-11 10:00:00 21.4 4 Sur 18 Oeste 0 -- -- 62
2020-08-11 09:00:00 20.9 10 Norte 16 Norte 0 -- -- 61
2020-08-11 08:00:00 20.9 4 Sur 17 Oeste 0 -- -- 58
2020-08-11 07:00:00 20.3 8 Oeste 13 Oeste 0 -- -- 60
2020-08-11 06:00:00 20.1 4 Nordeste 12 Norte 0 -- -- 58
2020-08-11 05:00:00 18.9 4 Sur 9 Sudoeste 0 -- -- 65
2020-08-11 04:00:00 18.3 2 Sudeste 8 Este 0 -- -- 61
2020-08-11 03:00:00 18.7 2 Este 10 Nordeste 0 -- -- 59
2020-08-11 02:00:00 19.9 0 Calma 5 Sudeste 0 -- -- 55
2020-08-11 01:00:00 19.9 0 Calma 10 Norte 0 -- -- 57
2020-08-11 00:00:00 21.5 4 Norte 8 Noroeste 0 -- -- 56
2020-08-10 23:00:00 22.9 3 Este 13 Noroeste 0 -- -- 52
2020-08-10 22:00:00 24.1 4 Norte 13 Norte 0 -- -- 46
2020-08-10 21:00:00 26.2 5 Norte 12 Norte 0 -- -- 37
2020-08-10 20:00:00 29.5 6 Este 12 Este 0 -- -- 29
2020-08-10 19:00:00 29.6 8 Este 12 Este 0 -- -- 30
2020-08-10 18:00:00 29.5 7 Norte 12 Norte 0 -- -- 32
2020-08-10 17:00:00 27.6 3 Noroeste 26 Sudeste 0 -- -- 37
2020-08-10 16:00:00 25 17 Sudeste 44 Sudeste 0.4 -- -- 54
2020-08-10 15:00:00 32.3 5 Este 21 Este 0 -- -- 25
2020-08-10 14:00:00 34.3 2 Este 8 Nordeste 0 -- -- 22
2020-08-10 13:00:00 30.9 8 Nordeste 17 Nordeste 0 -- -- 28
2020-08-10 12:00:00 32.5 4 Este 10 Sudeste 0 -- -- 25
2020-08-10 11:00:00 26.7 7 Nordeste 12 Este 0 -- -- 40
2020-08-10 10:00:00 23.4 4 Sudoeste 8 Nordeste 0 -- -- 52
2020-08-10 09:00:00 21.5 3 Sur 7 Sudeste 0 -- -- 55
2020-08-10 08:00:00 17.7 0 Calma 6 Sudeste 0 -- -- 66
2020-08-10 07:00:00 17.5 0 Calma 8 Sudeste 0 -- -- 67
2020-08-10 06:00:00 18.7 4 Sur 9 Sur 0 -- -- 61
2020-08-10 05:00:00 19.4 4 Sur 10 Sudeste 0 -- -- 58
2020-08-10 04:00:00 22 10 Nordeste 23 Nordeste 0 -- -- 47
2020-08-10 03:00:00 21.3 5 Sudeste 27 Nordeste 0 -- -- 51
2020-08-10 02:00:00 23.4 10 Norte 32 Noroeste 0 -- -- 41
2020-08-10 01:00:00 23.7 10 Norte 43 Norte 0 -- -- 42
2020-08-10 00:00:00 24.9 13 Norte 20 Norte 0 -- -- 49
2020-08-09 23:00:00 25.7 4 Nordeste 17 Nordeste 0 -- -- 44
2020-08-09 22:00:00 25.7 6 Norte 33 Nordeste 0 -- -- 46
2020-08-09 21:00:00 26.5 5 Sudeste 28 Nordeste 0 -- -- 46
2020-08-09 20:00:00 26.4 13 Norte 40 Norte 0 -- -- 45
2020-08-09 19:00:00 33.3 3 Este 9 Este 0 -- -- 30
2020-08-09 18:00:00 35.2 3 Este 5 Este 0 -- -- 26
2020-08-09 17:00:00 34.9 4 Sudeste 6 Nordeste 0 -- -- 25
2020-08-09 16:00:00 33.1 5 Sudeste 9 Este 0 -- -- 25
2020-08-09 15:00:00 32.5 6 Sudeste 18 Este 0 -- -- 28
2020-08-09 14:00:00 30.7 5 Sudeste 26 Este 0 -- -- 32
2020-08-09 13:00:00 29.9 7 Sur 11 Sudeste 0 -- -- 31
2020-08-09 12:00:00 33.4 3 Sudoeste 6 Norte 0 -- -- 27
2020-08-09 11:00:00 29 2 Norte 7 Este 0 -- -- 38
2020-08-09 10:00:00 25 0 Calma 5 Nordeste 0 -- -- 48
2020-08-09 09:00:00 22.3 0 Calma 6 Norte 0 -- -- 56
2020-08-09 08:00:00 20.1 0 Calma 6 Este 0 -- -- 65
2020-08-09 07:00:00 20.5 4 Sudeste 6 Sudeste 0 -- -- 63
2020-08-09 06:00:00 22.3 3 Sudeste 8 Este 0 -- -- 57
2020-08-09 05:00:00 23.2 7 Norte 12 Norte 0 -- -- 56
2020-08-09 04:00:00 24 2 Oeste 11 Este 0 -- -- 50
2020-08-09 03:00:00 24.3 3 Sudeste 12 Este 0 -- -- 50
2020-08-09 02:00:00 25.8 3 Oeste 30 Oeste 0 -- -- 49
2020-08-09 01:00:00 26.6 14 Oeste 30 Oeste 0 -- -- 39
2020-08-09 00:00:00 28 2 Este 13 Sudeste 0 -- -- 36
2020-08-08 23:00:00 28.9 8 Nordeste 12 Sudeste 0 -- -- 33
2020-08-08 22:00:00 29.6 0 Calma 10 Sur 0 -- -- 35
2020-08-08 21:00:00 31.8 7 Sur 9 Sur 0 -- -- 28
2020-08-08 20:00:00 35.1 4 Sur 6 Sur 0 -- -- 23
2020-08-08 19:00:00 37 2 Sur 4 Sudoeste 0 -- -- 21
2020-08-08 18:00:00 36.9 0 Calma 4 Sudoeste 0 -- -- 22
2020-08-08 17:00:00 36.8 0 Calma 4 Sudoeste 0 -- -- 22
2020-08-08 16:00:00 37.7 0 Calma 4 Sudoeste 0 -- -- 20
2020-08-08 15:00:00 37.5 2 Sur 5 Sudeste 0 -- -- 19
2020-08-08 14:00:00 36.2 2 Sur 5 Oeste 0 -- -- 21
2020-08-08 13:00:00 35.3 2 Sur 5 Nordeste 0 -- -- 22
2020-08-08 12:00:00 31.7 2 Este 6 Norte 0 -- -- 27
2020-08-08 11:00:00 27.1 3 Norte 8 Este 0 -- -- 38
2020-08-08 10:00:00 23.7 3 Este 5 Nordeste 0 -- -- 48
2020-08-08 09:00:00 20.5 0 Calma 4 Este 0 -- -- 59
2020-08-08 08:00:00 18 0 Calma 7 Sudeste 0 -- -- 66
2020-08-08 07:00:00 18.3 3 Sur 10 Nordeste 0 -- -- 64
2020-08-08 06:00:00 19.8 3 Este 15 Norte 0 -- -- 61
2020-08-08 05:00:00 20.8 4 Nordeste 14 Norte 0 -- -- 59
2020-08-08 04:00:00 22.7 5 Norte 20 Norte 0 -- -- 52
2020-08-08 03:00:00 23.4 8 Norte 25 Nordeste 0 -- -- 49
2020-08-08 02:00:00 22.4 5 Este 17 Nordeste 0 -- -- 58
2020-08-08 01:00:00 23.1 10 Noroeste 21 Noroeste 0 -- -- 57
2020-08-08 00:00:00 25.4 14 Noroeste 37 Norte 0 -- -- 45
2020-08-07 23:00:00 25.2 9 Noroeste 40 Oeste 0 -- -- 45
2020-08-07 22:00:00 27.5 4 Noroeste 16 Norte 0 -- -- 35
2020-08-07 21:00:00 28.7 12 Norte 36 Norte 0 -- -- 31
2020-08-07 20:00:00 35.6 3 Sudeste 5 Sudeste 0 -- -- 21
2020-08-07 19:00:00 37.3 2 Sur 4 Sudoeste 0 -- -- 19
2020-08-07 18:00:00 38 0 Calma 4 Sudoeste 0 -- -- 20
2020-08-07 17:00:00 38.5 0 Calma 3 Sudeste 0 -- -- 20
2020-08-07 16:00:00 38.4 2 Sur 3 Nordeste 0 -- -- 19
2020-08-07 15:00:00 37.7 2 Sudeste 4 Sudeste 0 -- -- 17
2020-08-07 14:00:00 36.1 2 Oeste 5 Sur 0 -- -- 17
2020-08-07 13:00:00 35 3 Sur 6 Sur 0 -- -- 21
2020-08-07 12:00:00 32.6 4 Sudeste 6 Este 0 -- -- 27
2020-08-07 11:00:00 28.9 4 Este 8 Noroeste 0 -- -- 39
2020-08-07 10:00:00 25 0 Calma 8 Norte 0 -- -- 46
2020-08-07 09:00:00 21.7 0 Calma 6 Sudeste 0 -- -- 58
2020-08-07 08:00:00 19 2 Sudeste 6 Este 0 -- -- 66
2020-08-07 07:00:00 19.9 3 Sur 8 Este 0 -- -- 61
2020-08-07 06:00:00 20.8 4 Sur 9 Este 0 -- -- 58
2020-08-07 05:00:00 20.7 2 Este 9 Nordeste 0 -- -- 59
2020-08-07 04:00:00 19.8 3 Este 7 Sur 0 -- -- 61
2020-08-07 03:00:00 19.5 2 Sur 7 Este 0 -- -- 61
2020-08-07 02:00:00 19.8 2 Sudeste 6 Este 0 -- -- 61
2020-08-07 01:00:00 20.2 3 Este 8 Este 0 -- -- 57
2020-08-07 00:00:00 21.1 3 Sudeste 8 Sudeste 0 -- -- 54
2020-08-06 23:00:00 23.4 0 Calma 6 Noroeste 0 -- -- 47
2020-08-06 22:00:00 26.2 6 Norte 10 Sudoeste 0 -- -- 37
2020-08-06 21:00:00 30.7 7 Sur 10 Sur 0 -- -- 28
2020-08-06 20:00:00 34.9 3 Sur 5 Sudeste 0 -- -- 20
2020-08-06 19:00:00 35.9 3 Sur 5 Sudoeste 0 -- -- 19
2020-08-06 18:00:00 35.1 3 Sudoeste 6 Oeste 0 -- -- 21
2020-08-06 17:00:00 36 2 Sur 5 Sudoeste 0 -- -- 20
2020-08-06 16:00:00 35.4 3 Sudeste 5 Sudeste 0 -- -- 18
2020-08-06 15:00:00 34.6 4 Sudeste 5 Sudeste 0 -- -- 19
2020-08-06 14:00:00 33.5 3 Sudeste 7 Sudeste 0 -- -- 21
2020-08-06 13:00:00 31.9 5 Sur 8 Sur 0 -- -- 22
2020-08-06 12:00:00 29.9 4 Sur 8 Sur 0 -- -- 24
2020-08-06 11:00:00 25.8 4 Este 7 Este 0 -- -- 36
2020-08-06 10:00:00 21.1 0 Calma 5 Nordeste 0 -- -- 49
2020-08-06 09:00:00 16.8 3 Este 6 Este 0 -- -- 67
2020-08-06 08:00:00 13.1 0 Calma 4 Este 0 -- -- 77
2020-08-06 07:00:00 12.8 0 Calma 5 Sudeste 0 -- -- 75
2020-08-06 06:00:00 13.3 0 Calma 5 Sudeste 0 -- -- 72
2020-08-06 05:00:00 14.5 0 Calma 4 Sur 0 -- -- 65
2020-08-06 04:00:00 15.2 3 Sudeste 8 Este 0 -- -- 62
2020-08-06 03:00:00 15.6 3 Este 6 Este 0 -- -- 63
2020-08-06 02:00:00 16.4 3 Sudeste 8 Este 0 -- -- 59
2020-08-06 01:00:00 17.9 0 Calma 6 Este 0 -- -- 59
2020-08-06 00:00:00 18.6 0 Calma 7 Este 0 -- -- 57
2020-08-05 23:00:00 21.7 0 Calma 5 Este 0 -- -- 44
2020-08-05 22:00:00 23.6 0 Calma 9 Este 0 -- -- 38
2020-08-05 21:00:00 28.6 4 Sur 10 Sur 0 -- -- 24
2020-08-05 20:00:00 31.7 6 Sudoeste 9 Sudoeste 0 -- -- 23
2020-08-05 19:00:00 33 4 Oeste 7 Sudoeste 0 -- -- 22
2020-08-05 18:00:00 33.1 4 Sudoeste 6 Sudoeste 0 -- -- 21
2020-08-05 17:00:00 32.7 4 Sudoeste 6 Sur 0 -- -- 21
2020-08-05 16:00:00 32.9 4 Sur 6 Sudeste 0 -- -- 21
2020-08-05 15:00:00 31.5 5 Sur 8 Sur 0 -- -- 20
2020-08-05 14:00:00 30.5 5 Sudeste 8 Sudeste 0 -- -- 22
2020-08-05 13:00:00 28.8 5 Sudeste 10 Sur 0 -- -- 26
2020-08-05 12:00:00 26.2 5 Sudeste 11 Sudeste 0 -- -- 32
2020-08-05 11:00:00 21.9 4 Este 9 Este 0 -- -- 49
2020-08-05 10:00:00 16.6 2 Sudeste 6 Norte 0 -- -- 64
2020-08-05 09:00:00 12.6 0 Calma 5 Este -- -- -- 86
2020-08-05 08:00:00 10.8 0 Calma 3 Sudeste 0 -- -- 85
2020-08-05 07:00:00 10.8 0 Calma 7 Sudoeste 0 -- -- 83
2020-08-05 06:00:00 11.5 0 Calma 5 Este 0 -- -- 82
2020-08-05 05:00:00 12.2 2 Sudoeste 10 Oeste 0 -- -- 77
2020-08-05 04:00:00 12.9 2 Sudoeste 8 Este 0 -- -- 74
2020-08-05 03:00:00 13.9 2 Sudeste 8 Oeste 0 -- -- 71
2020-08-05 02:00:00 15.4 2 Sudeste 6 Sudeste 0 -- -- 65
2020-08-05 01:00:00 16.5 0 Calma 9 Norte 0 -- -- 64
2020-08-05 00:00:00 18.6 5 Norte 13 Norte 0 -- -- 55
2020-08-04 23:00:00 19.6 5 Norte 19 Nordeste 0 -- -- 51
2020-08-04 22:00:00 21.3 8 Norte 13 Norte 0 -- -- 45
2020-08-04 21:00:00 23.6 9 Noroeste 29 Oeste 0 -- -- 35
2020-08-04 20:00:00 26.1 15 Oeste 28 Oeste 0 -- -- 30
2020-08-04 19:00:00 27.9 10 Oeste 20 Oeste 0 -- -- 27
2020-08-04 18:00:00 28.8 7 Oeste 10 Oeste 0 -- -- 24
2020-08-04 17:00:00 29 6 Sudoeste 10 Sudoeste 0 -- -- 21
2020-08-04 16:00:00 28.9 7 Oeste 10 Oeste 0 -- -- 20
2020-08-04 15:00:00 27.8 6 Noroeste 12 Noroeste 0 -- -- 21
2020-08-04 14:00:00 26.4 8 Oeste 13 Sudoeste 0 -- -- 25
2020-08-04 13:00:00 25.5 8 Sudeste 13 Sudoeste 0 -- -- 33
2020-08-04 12:00:00 23.1 5 Este 12 Este 0 -- -- 40
2020-08-04 11:00:00 18.9 3 Sudeste 12 Sudeste 0 -- -- 51
2020-08-04 10:00:00 15.6 5 Este 9 Sudeste 0 -- -- 67
2020-08-04 09:00:00 12.5 2 Este 5 Este 0 -- -- 78
2020-08-04 08:00:00 9.9 0 Calma 5 Sur 0 -- -- 87
2020-08-04 07:00:00 9.9 3 Sur 7 Sudeste 0 -- -- 84
2020-08-04 06:00:00 10.1 0 Calma 6 Este 0 -- -- 84
2020-08-04 05:00:00 10.9 3 Sur 6 Sur 0 -- -- 80
2020-08-04 04:00:00 11.8 0 Calma 13 Este 0 -- -- 77
2020-08-04 03:00:00 12.6 3 Sudeste 9 Este 0 -- -- 75
2020-08-04 02:00:00 14 2 Sur 10 Norte 0 -- -- 74
2020-08-04 01:00:00 14.6 3 Este 13 Oeste 0 -- -- 69
2020-08-04 00:00:00 16.3 8 Noroeste 15 Noroeste 0 -- -- 62
2020-08-03 23:00:00 17.5 8 Oeste 18 Oeste 0 -- -- 54
2020-08-03 22:00:00 19.5 10 Oeste 17 Oeste 0 -- -- 47
2020-08-03 21:00:00 20.9 8 Oeste 40 Noroeste 0 -- -- 43
2020-08-03 20:00:00 23.2 21 Oeste 40 Oeste 0 -- -- 38
2020-08-03 19:00:00 26.7 14 Oeste 37 Oeste 0 -- -- 27
2020-08-03 18:00:00 28.1 9 Sudoeste 25 Oeste 0 -- -- 23
2020-08-03 17:00:00 27.9 6 Oeste 22 Oeste 0 -- -- 25
2020-08-03 16:00:00 28.2 7 Oeste 18 Oeste 0 -- -- 26
2020-08-03 15:00:00 27.3 8 Sudoeste 14 Oeste 0 -- -- 26
2020-08-03 14:00:00 25.8 11 Oeste 23 Oeste 0 -- -- 28
2020-08-03 13:00:00 24 10 Oeste 27 Noroeste 0 -- -- 30
2020-08-03 12:00:00 21.9 12 Oeste 22 Noroeste 0 -- -- 36
2020-08-03 11:00:00 19.6 14 Noroeste 24 Noroeste 0 -- -- 41
2020-08-03 10:00:00 16.8 8 Oeste 19 Noroeste 0 -- -- 53
2020-08-03 09:00:00 14.4 7 Noroeste 12 Noroeste 3.2 -- -- 65
2020-08-03 08:00:00 12.7 3 Sudoeste 9 Oeste 1.4 -- -- 79
2020-08-03 07:00:00 13.9 5 Norte 17 Noroeste 0 -- -- 64
2020-08-03 06:00:00 14.6 7 Oeste 18 Noroeste 0 -- -- 63
2020-08-03 05:00:00 15.5 3 Noroeste 13 Oeste 0 -- -- 64
2020-08-03 04:00:00 15.7 7 Oeste 13 Sudoeste 0 -- -- 65
2020-08-03 03:00:00 16.2 5 Oeste 10 Oeste 0 -- -- 63
2020-08-03 02:00:00 16.4 3 Oeste 8 Oeste 0 -- -- 62
2020-08-03 01:00:00 16.8 4 Noroeste 11 Noroeste 0 -- -- 60
2020-08-03 00:00:00 17.3 4 Norte 13 Noroeste 0 -- -- 57
2020-08-02 23:00:00 18.1 3 Nordeste 12 Oeste 0 -- -- 54
2020-08-02 22:00:00 18.9 5 Sudoeste 18 Oeste 0 -- -- 54
2020-08-02 21:00:00 20.6 9 Noroeste 24 Oeste 0 -- -- 52
2020-08-02 20:00:00 21.7 10 Oeste 23 Oeste 0 -- -- 50
2020-08-02 19:00:00 22.9 11 Oeste 25 Oeste 0 -- -- 46
2020-08-02 18:00:00 24.6 13 Oeste 33 Noroeste 0 -- -- 44
2020-08-02 17:00:00 24.6 20 Oeste 34 Oeste 0 -- -- 44
2020-08-02 16:00:00 26.3 13 Oeste 24 Oeste 0 -- -- 41
2020-08-02 15:00:00 27.4 9 Oeste 17 Oeste 0 -- -- 39
2020-08-02 14:00:00 27.6 9 Oeste 19 Noroeste 0 -- -- 38
2020-08-02 13:00:00 26.9 9 Oeste 14 Noroeste 0 -- -- 41
2020-08-02 12:00:00 24.1 10 Noroeste 14 Norte 0 -- -- 47
2020-08-02 11:00:00 21.7 5 Sudeste 10 Nordeste 0 -- -- 57
2020-08-02 10:00:00 18.7 6 Este 9 Este 0 -- -- 69
2020-08-02 09:00:00 16.4 3 Nordeste 5 Nordeste 0 -- -- 79
2020-08-02 08:00:00 13.4 0 Calma 6 Nordeste 0 -- -- 88
2020-08-02 07:00:00 13.5 0 Calma 5 Este 0 -- -- 87
2020-08-02 06:00:00 13.5 2 Este 13 Oeste 0 -- -- 86
2020-08-02 05:00:00 14.4 0 Calma 6 Este 0 -- -- 85
2020-08-02 04:00:00 15 0 Calma 9 Este 0 -- -- 83
2020-08-02 03:00:00 15.8 4 Sudeste 13 Este 0 -- -- 79
2020-08-02 02:00:00 16.9 6 Este 9 Este 0 -- -- 73
2020-08-02 01:00:00 18.8 0 Calma 8 Oeste 0 -- -- 65
2020-08-02 00:00:00 19.8 3 Noroeste 14 Noroeste 0 -- -- 62
2020-08-01 23:00:00 20.8 4 Nordeste 27 Oeste 0 -- -- 60
2020-08-01 22:00:00 22.7 10 Oeste 31 Oeste 0 -- -- 56
2020-08-01 21:00:00 25.4 6 Oeste 30 Oeste 0 -- -- 49
2020-08-01 20:00:00 28.8 10 Oeste 32 Noroeste 0 -- -- 43
2020-08-01 19:00:00 32.2 3 Oeste 8 Oeste 0 -- -- 34
2020-08-01 18:00:00 33.3 2 Oeste 6 Sur 0 -- -- 29
2020-08-01 17:00:00 34 2 Oeste 8 Noroeste 0 -- -- 23
2020-08-01 16:00:00 34.2 2 Oeste 6 Sudoeste 0 -- -- 26
2020-08-01 15:00:00 33.4 4 Oeste 7 Sudoeste 0 -- -- 25
2020-08-01 14:00:00 34.7 3 Sur 6 Sudeste 0 -- -- 22
2020-08-01 13:00:00 33.3 4 Oeste 7 Oeste 0 -- -- 28
2020-08-01 12:00:00 31.5 3 Noroeste 8 Nordeste 0 -- -- 32
2020-08-01 11:00:00 27.3 4 Este 10 Sudoeste 0 -- -- 41
2020-08-01 10:00:00 23.8 6 Noroeste 12 Oeste 0 -- -- 41
2020-08-01 09:00:00 21.1 4 Norte 13 Oeste 0 -- -- 51
2020-08-01 08:00:00 18.6 9 Oeste 16 Oeste 0 -- -- 55
2020-08-01 07:00:00 17.6 3 Sudeste 8 Sudeste 0 -- -- 59
2020-08-01 06:00:00 17.7 3 Sudeste 6 Este 0 -- -- 58
2020-08-01 05:00:00 18.6 0 Calma 7 Sudeste 0 -- -- 54
2020-08-01 04:00:00 18.6 3 Sudeste 5 Este 0 -- -- 54
2020-08-01 03:00:00 18.7 2 Sur 7 Norte 0 -- -- 55
2020-08-01 02:00:00 19.3 3 Sudeste 10 Este 0 -- -- 53
2020-08-01 01:00:00 20.2 3 Este 6 Sudeste 0 -- -- 51
2020-08-01 00:00:00 22.1 0 Calma 8 Este 0 -- -- 43
2020-07-31 23:00:00 23.2 4 Sudeste 8 Nordeste 0 -- -- 44
2020-07-31 22:00:00 26.3 2 Sudeste 10 Noroeste 0 -- -- 36
2020-07-31 21:00:00 31.8 4 Sudoeste 8 Sur 0 -- -- 23
2020-07-31 20:00:00 35.4 4 Sudoeste 6 Oeste 0 -- -- 17
2020-07-31 19:00:00 37 0 Calma 5 Sudeste 0 -- -- 15
2020-07-31 18:00:00 37.4 2 Sudeste 5 Sudeste 0 -- -- 17
2020-07-31 17:00:00 36.7 2 Sur 5 Sudoeste 0 -- -- 17
2020-07-31 16:00:00 36.5 2 Sudoeste 5 Sudoeste 0 -- -- 18
2020-07-31 15:00:00 35.9 3 Sudeste 5 Sudeste 0 -- -- 20
2020-07-31 14:00:00 35.4 3 Sur 5 Sudeste 0 -- -- 20
2020-07-31 13:00:00 34.6 3 Sur 6 Este 0 -- -- 22
2020-07-31 12:00:00 33.2 3 Sur 6 Sur 0 -- -- 24
2020-07-31 11:00:00 30.9 0 Calma 6 Norte 0 -- -- 30
2020-07-31 10:00:00 25.8 3 Nordeste 6 Nordeste 0 -- -- 43
2020-07-31 09:00:00 21.9 0 Calma 8 Sudeste 0 -- -- 57
2020-07-31 08:00:00 18.8 2 Sudeste 11 Este 0 -- -- 66
2020-07-31 07:00:00 17.9 3 Sudeste 8 Sudeste 0 -- -- 68
2020-07-31 06:00:00 18.9 2 Sudoeste 7 Sudeste 0 -- -- 65
2020-07-31 05:00:00 20.2 4 Sudeste 8 Oeste 0 -- -- 58
2020-07-31 04:00:00 20.2 3 Sudeste 9 Sudeste 0 -- -- 58
2020-07-31 03:00:00 21.7 5 Sudeste 11 Este 0 -- -- 53
2020-07-31 02:00:00 24.2 4 Sudeste 24 Este 0 -- -- 45
2020-07-31 01:00:00 25.5 9 Nordeste 16 Oeste 0 -- -- 42
2020-07-31 00:00:00 26.5 5 Este 19 Sudoeste 0 -- -- 39
2020-07-30 23:00:00 26.1 13 Sudeste 26 Sur 0 -- -- 40
2020-07-30 22:00:00 27.1 10 Oeste 24 Oeste 0 -- -- 39
2020-07-30 21:00:00 30 6 Norte 12 Nordeste 0 -- -- 31
2020-07-30 20:00:00 31.4 5 Este 22 Este 0 -- -- 27
2020-07-30 19:00:00 33.1 4 Sudeste 11 Sudeste 0 -- -- 26
2020-07-30 18:00:00 37.7 2 Sudeste 4 Sudeste 0 -- -- 20
2020-07-30 17:00:00 38.2 0 Calma 4 Sur 0 -- -- 20
2020-07-30 16:00:00 38.1 0 Calma 5 Este 0 -- -- 19
2020-07-30 15:00:00 37.4 2 Este 5 Nordeste 0 -- -- 19
2020-07-30 14:00:00 36.3 3 Este 6 Este 0 -- -- 20
2020-07-30 13:00:00 34.9 2 Nordeste 6 Nordeste 0 -- -- 22
2020-07-30 12:00:00 33.2 3 Nordeste 7 Nordeste 0 -- -- 23
2020-07-30 11:00:00 29.6 3 Noroeste 9 Norte 0 -- -- 33
2020-07-30 10:00:00 25.5 5 Noroeste 10 Noroeste 0 -- -- 43
2020-07-30 09:00:00 21.3 0 Calma 8 Este 0 -- -- 60
2020-07-30 08:00:00 18.5 4 Sur 12 Sudeste 0 -- -- 72
2020-07-30 07:00:00 17.7 0 Calma 7 Sur 0 -- -- 75
2020-07-30 06:00:00 18.4 5 Sur 9 Sudeste 0 -- -- 74
2020-07-30 05:00:00 19.3 2 Este 9 Este 0 -- -- 69
2020-07-30 04:00:00 20.2 0 Calma 9 Este 0 -- -- 66
2020-07-30 03:00:00 20.4 4 Sudoeste 8 Nordeste 0 -- -- 64
2020-07-30 02:00:00 20.5 3 Nordeste 7 Este 0 -- -- 64
2020-07-30 01:00:00 20.7 3 Este 8 Este 0 -- -- 63
2020-07-30 00:00:00 21.6 3 Sudeste 8 Nordeste 0 -- -- 57
2020-07-29 23:00:00 23 2 Sudeste 7 Este 0 -- -- 55
2020-07-29 22:00:00 26.3 2 Nordeste 6 Sudeste 0 -- -- 42
2020-07-29 21:00:00 29.9 4 Sudeste 10 Sudeste 0 -- -- 31
2020-07-29 20:00:00 33.1 6 Este 8 Sudeste 0 -- -- 26
2020-07-29 19:00:00 34.3 4 Sudeste 6 Este 0 -- -- 22
2020-07-29 18:00:00 35.1 3 Sudeste 5 Sudeste 0 -- -- 23
2020-07-29 17:00:00 34.8 3 Sudeste 6 Sudeste 0 -- -- 24
2020-07-29 16:00:00 34.2 3 Nordeste 6 Nordeste 0 -- -- 25
2020-07-29 15:00:00 34.3 4 Este 6 Este 0 -- -- 24
2020-07-29 14:00:00 33.1 5 Este 7 Este 0 -- -- 28
2020-07-29 13:00:00 31.5 5 Sur 7 Este 0 -- -- 30
2020-07-29 12:00:00 24.7 0 Calma 8 Noroeste 2.2 -- -- 50
2020-07-29 11:00:00 22.5 5 Sudoeste 10 Norte 0 -- -- 63
2020-07-29 10:00:00 21.9 3 Sur 8 Oeste 0 -- -- 68
2020-07-29 09:00:00 19.6 4 Sudoeste 16 Oeste 0 -- -- 80
2020-07-29 08:00:00 17.4 4 Sur 6 Sudeste 0 -- -- 84
2020-07-29 07:00:00 16.3 3 Sudeste 7 Este 0 -- -- 90
2020-07-29 06:00:00 17 0 Calma 10 Sudoeste 0 -- -- 87
2020-07-29 05:00:00 17.6 2 Sudeste 6 Sudeste 0 -- -- 87
2020-07-29 04:00:00 18.5 2 Este 5 Sudeste 0 -- -- 85
2020-07-29 03:00:00 20 3 Sur 9 Noroeste 0 -- -- 78
2020-07-29 02:00:00 20.7 5 Sudoeste 10 Oeste 0 -- -- 75
2020-07-29 01:00:00 21.6 4 Oeste 14 Noroeste 0 -- -- 71
2020-07-29 00:00:00 23.2 6 Noroeste 18 Oeste 0 -- -- 67
2020-07-28 23:00:00 25.3 9 Noroeste 15 Noroeste 0 -- -- 52
2020-07-28 22:00:00 26.7 6 Oeste 13 Oeste 0 -- -- 48
2020-07-28 21:00:00 29.3 4 Sudoeste 10 Sudoeste 0 -- -- 36
2020-07-28 20:00:00 31.5 7 Sur 9 Sudoeste 0 -- -- 30
2020-07-28 19:00:00 34.7 4 Este 6 Este 0 -- -- 25
2020-07-28 18:00:00 35.6 2 Sur 5 Sur 0 -- -- 25
2020-07-28 17:00:00 36.3 2 Nordeste 6 Sur 0 -- -- 25
2020-07-28 16:00:00 35.5 2 Este 5 Sudoeste 0 -- -- 25
2020-07-28 15:00:00 35.2 2 Este 5 Sudeste 0 -- -- 25
2020-07-28 14:00:00 34.7 4 Sudeste 5 Sudeste 0 -- -- 25
2020-07-28 13:00:00 32.4 2 Norte 6 Noroeste 0 -- -- 31
2020-07-28 12:00:00 29.6 4 Oeste 10 Noroeste 0 -- -- 39
2020-07-28 11:00:00 25.4 6 Noroeste 11 Norte 0 -- -- 51
2020-07-28 10:00:00 23.1 4 Sur 13 Sudoeste 0 -- -- 60
2020-07-28 09:00:00 21.6 7 Oeste 13 Noroeste 0 -- -- 68
2020-07-28 08:00:00 19.8 5 Sur 12 Sudeste 0 -- -- 81
2020-07-28 07:00:00 19.1 0 Calma 13 Oeste 0 -- -- 82
2020-07-28 06:00:00 21.2 3 Nordeste 17 Nordeste 0 -- -- 70
2020-07-28 05:00:00 21.7 3 Noroeste 12 Sur 0 -- -- 64
2020-07-28 04:00:00 21.2 4 Este 21 Este 0 -- -- 70
2020-07-28 03:00:00 22 7 Este 26 Norte 0 -- -- 64
2020-07-28 02:00:00 21.3 6 Norte 16 Oeste 0.4 -- -- 69
2020-07-28 01:00:00 20.9 6 Este 18 Nordeste 0 -- -- 75
2020-07-28 00:00:00 21.8 8 Este 31 Nordeste 0 -- -- 72
2020-07-27 23:00:00 22.4 9 Norte 30 Norte 0.4 -- -- 67
2020-07-27 22:00:00 23 5 Noroeste 47 Oeste 2.6 -- -- 67
2020-07-27 21:00:00 32.3 5 Sudoeste 9 Este 0 -- -- 33
2020-07-27 20:00:00 35.6 4 Sur 6 Sudoeste 0 -- -- 22
2020-07-27 19:00:00 38.1 3 Sur 4 Sudeste 0 -- -- 20
2020-07-27 18:00:00 38.1 0 Calma 4 Sudoeste 0 -- -- 20
2020-07-27 17:00:00 38.6 0 Calma 4 Sudeste 0 -- -- 18
2020-07-27 16:00:00 38 0 Calma 4 Sur 0 -- -- 19
2020-07-27 15:00:00 37.8 2 Sur 4 Sudoeste 0 -- -- 22
2020-07-27 14:00:00 36.3 2 Sudoeste 5 Este 0 -- -- 24
2020-07-27 13:00:00 35.2 3 Sur 5 Sudeste 0 -- -- 26
2020-07-27 12:00:00 32.6 3 Sur 5 Sur 0 -- -- 31
2020-07-27 09:00:00 -- -- -- -- -- -- -- -- --
2020-07-27 08:00:00 17.6 2 Sur 7 Sudeste 0 -- -- 74
2020-07-27 07:00:00 16.3 0 Calma 6 Este 0 -- -- 77
2020-07-27 06:00:00 16.5 2 Este 6 Sudeste 0 -- -- 73
2020-07-27 05:00:00 16.9 3 Sudeste 6 Este 0 -- -- 71
2020-07-27 04:00:00 16.8 0 Calma 6 Sudeste 0 -- -- 69
2020-07-27 03:00:00 17.3 0 Calma 6 Sudeste 0 -- -- 65
2020-07-27 02:00:00 18 0 Calma 5 Este 0 -- -- 61
2020-07-27 01:00:00 18.3 3 Este 6 Este 0 -- -- 61
2020-07-27 00:00:00 20 0 Calma 7 Este 0 -- -- 52
2020-07-26 23:00:00 21.5 3 Nordeste 9 Noroeste 0 -- -- 54
2020-07-26 22:00:00 25.5 5 Noroeste 10 Noroeste 0 -- -- 34
2020-07-26 21:00:00 29.7 0 Calma 8 Oeste 0 -- -- 27
2020-07-26 20:00:00 32.6 6 Noroeste 8 Sudoeste 0 -- -- 22
2020-07-26 19:00:00 32.4 4 Oeste 8 Oeste 0 -- -- 26
2020-07-26 18:00:00 33 4 Oeste 6 Oeste 0 -- -- 29
2020-07-26 17:00:00 33.6 4 Noroeste 6 Oeste 0 -- -- 28
2020-07-26 16:00:00 33.2 4 Sur 7 Oeste 0 -- -- 26
2020-07-26 15:00:00 32.2 4 Sudoeste 8 Sur 0 -- -- 29
2020-07-26 14:00:00 31.7 5 Sur 8 Sudoeste 0 -- -- 30
2020-07-26 13:00:00 30.9 5 Sudeste 8 Sudeste 0 -- -- 32
2020-07-26 12:00:00 29.5 5 Este 8 Este 0 -- -- 35
2020-07-26 11:00:00 25 5 Este 10 Este 0 -- -- 45
2020-07-26 10:00:00 20.9 3 Este 6 Este 0 -- -- 57
2020-07-26 09:00:00 17.6 0 Calma 4 Noroeste 0 -- -- 66
2020-07-26 08:00:00 14.2 0 Calma 4 Este 0 -- -- 80
2020-07-26 07:00:00 14.3 0 Calma 7 Sudoeste 0 -- -- 78
2020-07-26 06:00:00 14.6 2 Sudoeste 7 Sudoeste 0 -- -- 77
2020-07-26 05:00:00 15 0 Calma 6 Este 0 -- -- 74
2020-07-26 04:00:00 15.8 0 Calma 4 Nordeste 0 -- -- 72
2020-07-26 03:00:00 17 0 Calma 7 Este 0 -- -- 69
2020-07-26 02:00:00 17.9 0 Calma 6 Oeste 0 -- -- 64
2020-07-26 01:00:00 18.5 0 Calma 4 Este 0 -- -- 66
2020-07-26 00:00:00 20.5 0 Calma 5 Este 0 -- -- 57
2020-07-25 23:00:00 21.3 4 Este 8 Norte 0 -- -- 56
2020-07-25 22:00:00 25 4 Norte 14 Noroeste 0 -- -- 42
2020-07-25 21:00:00 28.4 0 Calma 9 Sur 0 -- -- 34
2020-07-25 20:00:00 31.9 5 Sur 9 Sudoeste 0 -- -- 27
2020-07-25 19:00:00 31.3 5 Sudoeste 9 Oeste 0 -- -- 27
2020-07-25 18:00:00 32.3 4 Sudoeste 8 Sudoeste 0 -- -- 26
2020-07-25 17:00:00 33.1 4 Sudoeste 7 Sur 0 -- -- 22
2020-07-25 16:00:00 32.3 4 Sudoeste 7 Sudeste 0 -- -- 20
2020-07-25 15:00:00 31.8 4 Este 8 Este 0 -- -- 20
2020-07-25 14:00:00 31 5 Sudeste 8 Sudeste 0 -- -- 18
2020-07-25 13:00:00 29.6 5 Oeste 10 Sur 0 -- -- 22
2020-07-25 12:00:00 27.4 6 Sur 10 Sudeste 0 -- -- 28
2020-07-25 11:00:00 23.2 4 Este 8 Este 0 -- -- 44
2020-07-25 10:00:00 18 4 Este 6 Este 0 -- -- 59
2020-07-25 09:00:00 14.5 3 Este 6 Este 0 -- -- 75
2020-07-25 08:00:00 11.8 0 Calma 5 Sudoeste 0 -- -- 86
2020-07-25 07:00:00 10.9 0 Calma 4 Este 0 -- -- 87
2020-07-25 06:00:00 11.4 3 Este 5 Sudeste 0 -- -- 86
2020-07-25 05:00:00 12.4 3 Nordeste 6 Este 0 -- -- 82
2020-07-25 04:00:00 13.2 4 Sur 9 Sudoeste 0 -- -- 77
2020-07-25 03:00:00 14.6 2 Este 7 Sudeste 0 -- -- 72
2020-07-25 02:00:00 15.4 4 Sudeste 6 Este 0 -- -- 69
2020-07-25 01:00:00 18 3 Oeste 10 Oeste 0 -- -- 58
2020-07-25 00:00:00 19 3 Este 12 Oeste 0 -- -- 56
2020-07-24 23:00:00 21 5 Noroeste 21 Oeste 0 -- -- 51
2020-07-24 22:00:00 23.2 9 Oeste 18 Sudoeste 0 -- -- 42
2020-07-24 21:00:00 26.5 6 Sudoeste 13 Sudoeste 0 -- -- 27
2020-07-24 20:00:00 29 9 Oeste 12 Oeste 0 -- -- 26
2020-07-24 19:00:00 30.2 8 Oeste 18 Oeste 0 -- -- 22
2020-07-24 18:00:00 30.3 5 Oeste 9 Norte 0 -- -- 21
2020-07-24 17:00:00 30.3 3 Oeste 9 Oeste 0 -- -- 22
2020-07-24 16:00:00 30.2 5 Oeste 12 Sudoeste 0 -- -- 20
2020-07-24 15:00:00 29.4 6 Oeste 10 Oeste 0 -- -- 30
2020-07-24 14:00:00 29.3 6 Sur 9 Sudoeste 0 -- -- 35
2020-07-24 13:00:00 28.7 6 Sudeste 10 Norte 0 -- -- 36
2020-07-24 12:00:00 25.6 4 Sudeste 9 Este 0 -- -- 41
2020-07-24 11:00:00 23 4 Este 8 Este 0 -- -- 51
2020-07-24 10:00:00 19.5 5 Este 10 Sudeste 0 -- -- 61
2020-07-24 09:00:00 17.8 4 Este 9 Oeste 0 -- -- 68
2020-07-24 08:00:00 16.5 3 Sudeste 5 Sudeste 0 -- -- 76
2020-07-24 07:00:00 15.4 2 Este 6 Este 0 -- -- 87
2020-07-24 06:00:00 16.1 0 Calma 6 Este 0 -- -- 83
2020-07-24 05:00:00 16.7 2 Nordeste 8 Sur 0 -- -- 80
2020-07-24 04:00:00 17.7 5 Norte 16 Nordeste 0.2 -- -- 74
2020-07-24 03:00:00 17.3 0 Calma 6 Este 0 -- -- 70
2020-07-24 02:00:00 18.1 4 Este 6 Sudeste 0 -- -- 67
2020-07-24 01:00:00 20.4 4 Sur 10 Sudoeste 0 -- -- 59
2020-07-24 00:00:00 20.9 3 Este 12 Oeste 0 -- -- 58
2020-07-23 23:00:00 23.7 5 Oeste 9 Sudoeste 0 -- -- 46
2020-07-23 22:00:00 25.5 5 Oeste 18 Sudoeste 0 -- -- 38
2020-07-23 21:00:00 28.2 10 Oeste 23 Oeste 0 -- -- 37
2020-07-23 20:00:00 31.1 7 Oeste 9 Oeste 0 -- -- 32
2020-07-23 19:00:00 31.8 4 Oeste 8 Sudoeste 0 -- -- 27
2020-07-23 18:00:00 32.7 3 Oeste 8 Sudoeste 0 -- -- 23
2020-07-23 17:00:00 32.8 4 Sudoeste 11 Sudoeste 0 -- -- 26
2020-07-23 16:00:00 31.9 5 Oeste 15 Sudoeste 0 -- -- 26
2020-07-23 15:00:00 32.2 3 Noroeste 10 Oeste 0 -- -- 22
2020-07-23 14:00:00 30.8 6 Oeste 9 Oeste 0 -- -- 25
2020-07-23 13:00:00 31.8 5 Sudoeste 7 Sudoeste 0 -- -- 28
2020-07-23 12:00:00 29.5 2 Sur 6 Sur 0 -- -- 31
2020-07-23 11:00:00 26.7 5 Este 9 Este 0 -- -- 39
2020-07-23 10:00:00 21.5 4 Sudeste 6 Sudeste 0 -- -- 51
2020-07-23 09:00:00 18.2 0 Calma 6 Este 0 -- -- 58
2020-07-23 08:00:00 14.5 0 Calma 5 Sudeste 0 -- -- 78
2020-07-23 07:00:00 13.9 0 Calma 5 Este 0 -- -- 76
2020-07-23 06:00:00 15 0 Calma 6 Oeste 0 -- -- 71
2020-07-23 05:00:00 14.7 0 Calma 6 Sudoeste 0 -- -- 74
2020-07-23 04:00:00 15.8 0 Calma 7 Este 0 -- -- 68
2020-07-23 03:00:00 16.3 3 Sudeste 6 Sudeste 0 -- -- 65
2020-07-23 02:00:00 17.4 3 Sudeste 8 Este 0 -- -- 59
2020-07-23 01:00:00 18.2 3 Sudeste 7 Este 0 -- -- 60
2020-07-23 00:00:00 19.2 4 Este 10 Este 0 -- -- 56
2020-07-22 23:00:00 20.7 3 Sudeste 10 Norte 0 -- -- 53
2020-07-22 22:00:00 24.9 4 Noroeste 11 Norte 0 -- -- 37
2020-07-22 21:00:00 26.7 3 Sudeste 9 Este 0 -- -- 34
2020-07-22 20:00:00 30.1 2 Sudeste 12 Sudeste 0 -- -- 25
2020-07-22 19:00:00 29.5 9 Sur 13 Sur 0 -- -- 26
2020-07-22 18:00:00 32.6 5 Sur 8 Sur 0 -- -- 21
2020-07-22 17:00:00 35.1 3 Este 6 Sur 0 -- -- 18
2020-07-22 16:00:00 32.5 4 Noroeste 8 Este 0 -- -- 21
2020-07-22 15:00:00 33.9 4 Este 8 Nordeste 0 -- -- 22
2020-07-22 14:00:00 32.4 4 Nordeste 8 Nordeste 0 -- -- 23
2020-07-22 13:00:00 32.4 5 Este 9 Sudoeste 0 -- -- 23
2020-07-22 12:00:00 28.8 8 Sur 12 Sudoeste 0 -- -- 37
2020-07-22 11:00:00 26.8 5 Sur 13 Sur 0 -- -- 43
2020-07-22 10:00:00 23 7 Sur 13 Sur 0 -- -- 64
2020-07-22 09:00:00 22.4 4 Sudoeste 10 Sudoeste 0 -- -- 59
2020-07-22 08:00:00 20.2 2 Sudeste 13 Oeste 0 -- -- 70
2020-07-22 07:00:00 19.6 3 Sudoeste 9 Sudoeste 0 -- -- 73
2020-07-22 06:00:00 19.6 2 Sur 9 Sur 0 -- -- 73
2020-07-22 05:00:00 19.4 3 Este 8 Este 0 -- -- 77
2020-07-22 04:00:00 19.4 0 Calma 6 Sudoeste 0 -- -- 80
2020-07-22 03:00:00 20.1 3 Sur 8 Sudeste 0 -- -- 78
2020-07-22 02:00:00 21.5 4 Sudeste 10 Oeste 0 -- -- 69
2020-07-22 01:00:00 22.7 9 Norte 17 Noroeste 0 -- -- 66
2020-07-22 00:00:00 25.1 3 Sudoeste 12 Oeste 0 -- -- 51
2020-07-21 23:00:00 25 6 Oeste 13 Oeste 0 -- -- 52
2020-07-21 22:00:00 26.2 6 Noroeste 11 Norte 0 -- -- 48
2020-07-21 21:00:00 28.2 4 Norte 11 Sudeste 0 -- -- 41
2020-07-21 20:00:00 30.7 5 Sur 10 Sur 0 -- -- 31
2020-07-21 19:00:00 32.5 7 Este 9 Este 0 -- -- 28
2020-07-21 18:00:00 35.2 3 Este 8 Este 0 -- -- 25
2020-07-21 17:00:00 35.9 2 Sudeste 6 Este 0 -- -- 23
2020-07-21 16:00:00 34.8 2 Norte 5 Norte 0 -- -- 23
2020-07-21 15:00:00 35.4 3 Este 6 Este 0 -- -- 24
2020-07-21 14:00:00 34.8 3 Nordeste 6 Este 0 -- -- 26
2020-07-21 13:00:00 33.5 4 Este 8 Nordeste 0 -- -- 28
2020-07-21 12:00:00 32 5 Este 8 Nordeste 0 -- -- 30
2020-07-21 11:00:00 28.3 4 Sudeste 8 Sudoeste 0 -- -- 36
2020-07-21 10:00:00 23.8 3 Este 6 Este 0 -- -- 52
2020-07-21 09:00:00 20.2 0 Calma 5 Este 0 -- -- 64
2020-07-21 08:00:00 16.8 0 Calma 8 Este 0 -- -- 77
2020-07-21 07:00:00 15.9 2 Sudeste 7 Este 0 -- -- 79
2020-07-21 06:00:00 16.6 2 Sudeste 6 Sur 0 -- -- 77
2020-07-21 05:00:00 17.2 0 Calma 7 Sudeste 0 -- -- 75
2020-07-21 04:00:00 18.5 2 Sur 9 Sudeste 0 -- -- 72
2020-07-21 03:00:00 18.7 3 Sudeste 8 Este 0 -- -- 73
2020-07-21 02:00:00 19.2 0 Calma 9 Norte 0 -- -- 71
2020-07-21 01:00:00 20.9 5 Norte 10 Noroeste 0 -- -- 66
2020-07-21 00:00:00 22.5 3 Noroeste 8 Noroeste 0 -- -- 59
2020-07-20 23:00:00 24.2 0 Calma 15 Este 0 -- -- 53
2020-07-20 22:00:00 26.4 2 Norte 10 Este 0 -- -- 46
2020-07-20 21:00:00 28.7 9 Nordeste 13 Nordeste 0 -- -- 38
2020-07-20 20:00:00 30.2 8 Nordeste 10 Nordeste 0 -- -- 31
2020-07-20 19:00:00 30.6 8 Norte 17 Noroeste 0 -- -- 32
2020-07-20 18:00:00 31.1 3 Norte 9 Nordeste 0 -- -- 34
2020-07-20 17:00:00 34.2 3 Sur 6 Sur 0 -- -- 22
2020-07-20 16:00:00 34.5 3 Sudeste 6 Sudeste 0 -- -- 27
2020-07-20 15:00:00 34.5 2 Sudeste 6 Sudeste 0 -- -- 28
2020-07-20 14:00:00 33.6 4 Sur 6 Oeste 0 -- -- 30
2020-07-20 13:00:00 31.9 5 Sudoeste 7 Sur 0 -- -- 34
2020-07-20 12:00:00 30 4 Sur 8 Sudeste 0 -- -- 40
2020-07-20 11:00:00 26.9 4 Sur 8 Sudeste 0 -- -- 47
2020-07-20 10:00:00 23.6 4 Este 13 Nordeste 0 -- -- 53
2020-07-20 09:00:00 21.2 0 Calma 7 Norte 0 -- -- 58
2020-07-20 08:00:00 17.8 3 Sudeste 7 Sudeste 0 -- -- 77
2020-07-20 07:00:00 16.5 3 Sudeste 6 Este 0 -- -- 78
2020-07-20 06:00:00 16.2 2 Este 5 Sudeste 0 -- -- 80
2020-07-20 05:00:00 16.9 3 Sudeste 6 Este 0 -- -- 75
2020-07-20 04:00:00 17.2 3 Este 5 Sudeste 0 -- -- 74
2020-07-20 03:00:00 18.4 0 Calma 8 Este 0 -- -- 67
2020-07-20 02:00:00 19.5 0 Calma 7 Este 0 -- -- 61
2020-07-20 01:00:00 20 3 Sur 8 Sudeste 0 -- -- 56
2020-07-20 00:00:00 21 2 Sudeste 6 Este 0 -- -- 55
2020-07-19 23:00:00 22.9 0 Calma 8 Sudeste 0 -- -- 47
2020-07-19 22:00:00 25.3 3 Norte 11 Noroeste 0 -- -- 41
2020-07-19 21:00:00 29.4 4 Sur 9 Sudoeste 0 -- -- 30
2020-07-19 20:00:00 33 5 Sur 7 Sudoeste 0 -- -- 23
2020-07-19 19:00:00 33.6 4 Sur 7 Sudoeste 0 -- -- 21
2020-07-19 18:00:00 33.8 4 Sudoeste 6 Sudoeste 0 -- -- 20
2020-07-19 17:00:00 33.7 4 Sudoeste 6 Oeste 0 -- -- 22
2020-07-19 16:00:00 33.6 3 Sudoeste 6 Sudoeste 0 -- -- 22
2020-07-19 15:00:00 32.9 5 Este 7 Nordeste 0 -- -- 24
2020-07-19 14:00:00 31.6 5 Nordeste 8 Nordeste 0 -- -- 26
2020-07-19 13:00:00 31.3 5 Sudeste 8 Sudeste 0 -- -- 27
2020-07-19 12:00:00 29.5 5 Sudeste 8 Sudeste 0 -- -- 28
2020-07-19 11:00:00 26.5 4 Este 8 Norte 0 -- -- 42
2020-07-19 10:00:00 21.8 0 Calma 4 Sudeste 0 -- -- 56
2020-07-19 09:00:00 18.4 0 Calma 6 Nordeste 0 -- -- 68
2020-07-19 08:00:00 14.5 4 Este 6 Nordeste 0 -- -- 81
2020-07-19 07:00:00 13.4 2 Sudeste 8 Sudeste 0 -- -- 84
2020-07-19 06:00:00 13.3 3 Este 7 Este 0 -- -- 84
2020-07-19 05:00:00 13.8 4 Este 5 Sudeste 0 -- -- 81
2020-07-19 04:00:00 14.8 0 Calma 7 Este 0 -- -- 78
2020-07-19 03:00:00 15.3 2 Sudeste 7 Este 0 -- -- 78
2020-07-19 02:00:00 16.1 2 Este 5 Este 0 -- -- 75
2020-07-19 01:00:00 17.5 2 Este 7 Sudeste 0 -- -- 68
2020-07-19 00:00:00 18.6 3 Este 5 Este 0 -- -- 64
2020-07-18 23:00:00 21.3 0 Calma 10 Noroeste 0 -- -- 54
2020-07-18 22:00:00 25 6 Norte 11 Noroeste 0 -- -- 40
2020-07-18 21:00:00 28.9 6 Sudoeste 10 Oeste 0 -- -- 28
2020-07-18 20:00:00 31.7 6 Oeste 8 Oeste 0 -- -- 24
2020-07-18 19:00:00 32 5 Noroeste 7 Noroeste 0 -- -- 23
2020-07-18 18:00:00 32.5 4 Oeste 7 Sudoeste 0 -- -- 22
2020-07-18 17:00:00 31.9 5 Oeste 8 Sudoeste 0 -- -- 22
2020-07-18 16:00:00 30.9 6 Noroeste 8 Noroeste 0 -- -- 26
2020-07-18 15:00:00 30.3 4 Oeste 9 Sur 0 -- -- 27
2020-07-18 14:00:00 30 5 Sudeste 9 Sudoeste 0 -- -- 30
2020-07-18 13:00:00 28.1 6 Sudoeste 10 Sudoeste 0 -- -- 33
2020-07-18 12:00:00 27.1 6 Este 10 Este 0 -- -- 34
2020-07-18 11:00:00 22.7 3 Norte 8 Nordeste 0 -- -- 41
2020-07-18 10:00:00 18.1 2 Nordeste 6 Este 0 -- -- 57
2020-07-18 09:00:00 15 5 Este 7 Este 0 -- -- 73
2020-07-18 08:00:00 11.9 0 Calma 8 Nordeste 0 -- -- 84
2020-07-18 07:00:00 11.3 0 Calma 5 Este 0 -- -- 86
2020-07-18 06:00:00 11.7 2 Sudeste 8 Sudoeste 0 -- -- 84
2020-07-18 05:00:00 12.7 5 Oeste 11 Sudoeste 0 -- -- 80
2020-07-18 04:00:00 13.1 4 Sudoeste 12 Oeste 0 -- -- 77
2020-07-18 03:00:00 14.7 3 Este 9 Este 0 -- -- 71
2020-07-18 02:00:00 15.5 2 Este 11 Nordeste 0 -- -- 67
2020-07-18 01:00:00 17.1 0 Calma 11 Norte 0 -- -- 62
2020-07-18 00:00:00 18.6 6 Norte 24 Norte 0 -- -- 54
2020-07-17 23:00:00 19.6 11 Norte 21 Norte 0 -- -- 50
2020-07-17 22:00:00 19.9 13 Norte 20 Noroeste 0 -- -- 50
2020-07-17 21:00:00 22.7 9 Norte 18 Noroeste 0 -- -- 43
2020-07-17 20:00:00 25.2 14 Oeste 34 Noroeste 0 -- -- 38
2020-07-17 19:00:00 26.2 14 Oeste 29 Oeste 0 -- -- 35
2020-07-17 18:00:00 27.4 10 Oeste 23 Oeste 0 -- -- 33
2020-07-17 17:00:00 28.9 6 Oeste 10 Noroeste 0 -- -- 29
2020-07-17 16:00:00 28.6 6 Noroeste 10 Oeste 0 -- -- 30
2020-07-17 15:00:00 27.9 7 Oeste 12 Norte 0 -- -- 31
2020-07-17 14:00:00 26.5 9 Noroeste 12 Sudoeste 0 -- -- 33
2020-07-17 13:00:00 25.2 6 Sudeste 13 Sur 0 -- -- 41
2020-07-17 12:00:00 23.9 5 Este 11 Este 0 -- -- 44
2020-07-17 11:00:00 20.1 5 Este 10 Este 0 -- -- 53
2020-07-17 10:00:00 16.5 3 Sudeste 10 Noroeste 0 -- -- 65
2020-07-17 09:00:00 13.6 3 Este 6 Este 0 -- -- 78
2020-07-17 08:00:00 10.3 2 Nordeste 4 Este 0 -- -- 91
2020-07-17 07:00:00 9.9 0 Calma 4 Este 0 -- -- 88
2020-07-17 06:00:00 10.3 3 Este 5 Este 0 -- -- 88
2020-07-17 05:00:00 11 0 Calma 5 Sudeste 0 -- -- 85
2020-07-17 04:00:00 12.2 0 Calma 7 Oeste 0 -- -- 78
2020-07-17 03:00:00 12.9 3 Sudeste 6 Este 0 -- -- 77
2020-07-17 02:00:00 14 4 Sudeste 8 Sudeste 0 -- -- 71
2020-07-17 01:00:00 15.5 0 Calma 7 Nordeste 0 -- -- 65
2020-07-17 00:00:00 17.5 4 Norte 13 Sudoeste 0 -- -- 57
2020-07-16 23:00:00 18.8 8 Oeste 22 Oeste 0 -- -- 54
2020-07-16 22:00:00 21.2 11 Oeste 26 Oeste 0 -- -- 49
2020-07-16 21:00:00 23.4 12 Oeste 27 Oeste 0 -- -- 47
2020-07-16 20:00:00 26.1 13 Oeste 23 Oeste 0 -- -- 42
2020-07-16 19:00:00 27.6 10 Oeste 17 Oeste 0 -- -- 40
2020-07-16 18:00:00 28.6 8 Noroeste 10 Oeste 0 -- -- 37
2020-07-16 17:00:00 29.1 6 Oeste 9 Sudoeste 0 -- -- 33
2020-07-16 16:00:00 29.1 5 Sudeste 10 Oeste 0 -- -- 34
2020-07-16 15:00:00 27.4 5 Oeste 12 Sudoeste 0 -- -- 35
2020-07-16 14:00:00 26.4 5 Nordeste 12 Nordeste 0 -- -- 38
2020-07-16 13:00:00 25.9 7 Este 13 Sudeste 0 -- -- 38
2020-07-16 12:00:00 23.2 6 Este 11 Este 0 -- -- 42
2020-07-16 11:00:00 19.8 5 Este 10 Este 0 -- -- 49
2020-07-16 10:00:00 15.5 3 Este 6 Este 0 -- -- 60
2020-07-16 09:00:00 13.2 3 Norte 6 Nordeste 0 -- -- 75
2020-07-16 08:00:00 10.2 2 Este 9 Oeste 0 -- -- 86
2020-07-16 07:00:00 9.6 5 Sudoeste 8 Sudoeste 0 -- -- 86
2020-07-16 06:00:00 10 0 Calma 3 Este 0 -- -- 87
2020-07-16 05:00:00 10.4 0 Calma 4 Este 0 -- -- 83
2020-07-16 04:00:00 11.4 0 Calma 9 Este 0 -- -- 81
2020-07-16 03:00:00 12.1 4 Este 9 Nordeste 0 -- -- 75
2020-07-16 02:00:00 12.8 4 Este 8 Sudeste 0 -- -- 74
2020-07-16 01:00:00 14 3 Este 13 Noroeste 0 -- -- 65
2020-07-16 00:00:00 15.2 7 Oeste 17 Sudoeste 0 -- -- 59
2020-07-15 23:00:00 16.5 6 Oeste 17 Oeste 0 -- -- 57
2020-07-15 22:00:00 18.5 6 Oeste 22 Noroeste 0 -- -- 49
2020-07-15 21:00:00 20.5 13 Oeste 27 Oeste 0 -- -- 41
2020-07-15 20:00:00 22.5 16 Oeste 29 Oeste 0 -- -- 35
2020-07-15 19:00:00 23.8 15 Oeste 29 Oeste 0 -- -- 34
2020-07-15 18:00:00 23.7 17 Oeste 30 Oeste 0 -- -- 38
2020-07-15 17:00:00 23.6 16 Oeste 32 Oeste 0 -- -- 40
2020-07-15 16:00:00 24.2 13 Oeste 28 Oeste 0 -- -- 41
2020-07-15 15:00:00 25.1 10 Oeste 25 Oeste 0 -- -- 39
2020-07-15 14:00:00 23.5 4 Sudeste 13 Sur 0 -- -- 46
2020-07-15 13:00:00 22.9 4 Oeste 13 Sudeste 0 -- -- 41
2020-07-15 12:00:00 19 3 Este 10 Nordeste 0 -- -- 48
2020-07-15 11:00:00 16.5 4 Este 8 Este 0 -- -- 50
2020-07-15 10:00:00 15 3 Este 9 Sudoeste 0 -- -- 54
2020-07-15 09:00:00 14 3 Sur 9 Sudoeste 0 -- -- 56
2020-07-15 08:00:00 12.5 0 Calma 5 Sudeste 0 -- -- 77
2020-07-15 07:00:00 11.6 0 Calma 4 Este 0 -- -- 80
2020-07-15 06:00:00 11.7 3 Este 5 Este 0 -- -- 82
2020-07-15 05:00:00 11.1 2 Sudeste 6 Este 0 -- -- 83
2020-07-15 04:00:00 11.7 0 Calma 6 Norte 0 -- -- 78
2020-07-15 03:00:00 13.1 2 Sur 7 Noroeste 0 -- -- 67
2020-07-15 02:00:00 13.9 3 Sudoeste 13 Oeste 0 -- -- 67
2020-07-15 01:00:00 15 3 Oeste 13 Noroeste 0 -- -- 64
2020-07-15 00:00:00 16.4 3 Norte 12 Oeste 0 -- -- 59
2020-07-14 23:00:00 17.6 4 Noroeste 15 Oeste 0 -- -- 55
2020-07-14 22:00:00 19.2 4 Oeste 22 Oeste 0 -- -- 49
2020-07-14 21:00:00 21.8 9 Noroeste 30 Oeste 0 -- -- 40
2020-07-14 20:00:00 24.6 14 Oeste 23 Sudoeste 0 -- -- 35
2020-07-14 19:00:00 26.9 9 Oeste 13 Oeste 0 -- -- 33
2020-07-14 18:00:00 26.9 9 Oeste 13 Oeste 0 -- -- 33
2020-07-14 17:00:00 26.3 9 Oeste 13 Oeste 0 -- -- 34
2020-07-14 16:00:00 25 11 Oeste 19 Oeste 0 -- -- 37
2020-07-14 15:00:00 24.7 11 Oeste 17 Oeste 0 -- -- 40
2020-07-14 14:00:00 24.4 10 Oeste 15 Oeste 0 -- -- 41
2020-07-14 13:00:00 24.5 4 Norte 14 Noroeste 0 -- -- 42
2020-07-14 12:00:00 22.5 4 Oeste 14 Oeste 0 -- -- 41
2020-07-14 11:00:00 19.5 3 Sudeste 10 Sudeste 0 -- -- 50
2020-07-14 10:00:00 17 2 Sudeste 7 Este 0 -- -- 56
2020-07-14 09:00:00 15.5 3 Este 7 Sudoeste 0 -- -- 60
2020-07-14 08:00:00 14.1 4 Sudoeste 8 Sudoeste 0 -- -- 69
2020-07-14 07:00:00 13.8 4 Sudoeste 6 Sudoeste 0 -- -- 68
2020-07-14 06:00:00 14 0 Calma 6 Oeste 0 -- -- 72
2020-07-14 05:00:00 14.3 5 Sudoeste 8 Sudoeste 0 -- -- 65
2020-07-14 04:00:00 14.9 5 Sudoeste 8 Sudoeste 0 -- -- 64
2020-07-14 03:00:00 15 0 Calma 9 Norte 0 -- -- 65
2020-07-14 02:00:00 15.3 2 Sur 7 Sudoeste 0 -- -- 67
2020-07-14 01:00:00 16 3 Este 16 Oeste 0 -- -- 66
2020-07-14 00:00:00 17.4 3 Norte 16 Noroeste 0 -- -- 60